sensor_id;sensor_type;location;lat;lon;timestamp;P1;durP1;ratioP1;P2;durP2;ratioP2
59512;SDS011;45330;51.634;5.562;2023-02-28T00:00:07;21.17;;;8.25;;
59512;SDS011;45330;51.634;5.562;2023-02-28T00:02:35;20.20;;;8.50;;
59512;SDS011;45330;51.634;5.562;2023-02-28T00:05:05;21.85;;;7.82;;
59512;SDS011;45330;51.634;5.562;2023-02-28T00:07:31;18.88;;;8.05;;
59512;SDS011;45330;51.634;5.562;2023-02-28T00:09:57;18.00;;;7.63;;
59512;SDS011;45330;51.634;5.562;2023-02-28T00:12:23;20.00;;;7.72;;
59512;SDS011;45330;51.634;5.562;2023-02-28T00:14:49;21.10;;;7.63;;
59512;SDS011;45330;51.634;5.562;2023-02-28T00:17:15;21.50;;;7.70;;
59512;SDS011;45330;51.634;5.562;2023-02-28T00:19:42;18.88;;;7.28;;
59512;SDS011;45330;51.634;5.562;2023-02-28T00:22:08;19.30;;;7.75;;
59512;SDS011;45330;51.634;5.562;2023-02-28T00:24:34;20.02;;;7.88;;
59512;SDS011;45330;51.634;5.562;2023-02-28T00:26:59;18.60;;;7.82;;
59512;SDS011;45330;51.634;5.562;2023-02-28T00:29:25;20.25;;;7.90;;
59512;SDS011;45330;51.634;5.562;2023-02-28T00:31:50;19.25;;;7.75;;
59512;SDS011;45330;51.634;5.562;2023-02-28T00:34:15;17.67;;;7.45;;
59512;SDS011;45330;51.634;5.562;2023-02-28T00:36:41;18.85;;;7.97;;
59512;SDS011;45330;51.634;5.562;2023-02-28T00:39:10;19.38;;;7.78;;
59512;SDS011;45330;51.634;5.562;2023-02-28T00:41:36;19.40;;;7.60;;
59512;SDS011;45330;51.634;5.562;2023-02-28T00:44:01;20.65;;;8.13;;
59512;SDS011;45330;51.634;5.562;2023-02-28T00:46:26;20.08;;;8.43;;
59512;SDS011;45330;51.634;5.562;2023-02-28T00:48:52;18.73;;;7.63;;
59512;SDS011;45330;51.634;5.562;2023-02-28T00:51:17;19.17;;;7.78;;
59512;SDS011;45330;51.634;5.562;2023-02-28T00:53:42;20.50;;;8.25;;
59512;SDS011;45330;51.634;5.562;2023-02-28T00:56:08;18.85;;;7.57;;
59512;SDS011;45330;51.634;5.562;2023-02-28T00:58:33;21.17;;;7.78;;
59512;SDS011;45330;51.634;5.562;2023-02-28T01:00:58;20.63;;;7.97;;
59512;SDS011;45330;51.634;5.562;2023-02-28T01:03:24;21.45;;;8.07;;
59512;SDS011;45330;51.634;5.562;2023-02-28T01:05:50;19.85;;;8.20;;
59512;SDS011;45330;51.634;5.562;2023-02-28T01:08:17;19.20;;;8.13;;
59512;SDS011;45330;51.634;5.562;2023-02-28T01:10:43;20.63;;;7.82;;
59512;SDS011;45330;51.634;5.562;2023-02-28T01:13:08;20.48;;;8.02;;
59512;SDS011;45330;51.634;5.562;2023-02-28T01:15:34;20.08;;;7.97;;
59512;SDS011;45330;51.634;5.562;2023-02-28T01:17:59;20.33;;;8.00;;
59512;SDS011;45330;51.634;5.562;2023-02-28T01:20:25;19.25;;;7.47;;
59512;SDS011;45330;51.634;5.562;2023-02-28T01:22:50;19.40;;;7.90;;
59512;SDS011;45330;51.634;5.562;2023-02-28T01:25:15;20.98;;;8.50;;
59512;SDS011;45330;51.634;5.562;2023-02-28T01:27:41;20.88;;;7.70;;
59512;SDS011;45330;51.634;5.562;2023-02-28T01:30:07;18.98;;;8.30;;
59512;SDS011;45330;51.634;5.562;2023-02-28T01:32:33;19.92;;;8.05;;
59512;SDS011;45330;51.634;5.562;2023-02-28T01:35:00;22.65;;;8.57;;
59512;SDS011;45330;51.634;5.562;2023-02-28T01:37:25;20.63;;;8.20;;
59512;SDS011;45330;51.634;5.562;2023-02-28T01:39:51;19.50;;;7.95;;
59512;SDS011;45330;51.634;5.562;2023-02-28T01:42:17;18.27;;;8.05;;
59512;SDS011;45330;51.634;5.562;2023-02-28T01:45:00;20.75;;;8.48;;
59512;SDS011;45330;51.634;5.562;2023-02-28T01:47:27;21.50;;;8.60;;
59512;SDS011;45330;51.634;5.562;2023-02-28T01:50:07;19.27;;;8.10;;
59512;SDS011;45330;51.634;5.562;2023-02-28T01:52:37;20.52;;;8.63;;
59512;SDS011;45330;51.634;5.562;2023-02-28T01:55:04;19.60;;;8.27;;
59512;SDS011;45330;51.634;5.562;2023-02-28T01:57:35;20.02;;;8.52;;
59512;SDS011;45330;51.634;5.562;2023-02-28T02:00:11;19.30;;;7.80;;
59512;SDS011;45330;51.634;5.562;2023-02-28T02:02:41;20.17;;;8.68;;
59512;SDS011;45330;51.634;5.562;2023-02-28T02:05:21;21.73;;;8.35;;
59512;SDS011;45330;51.634;5.562;2023-02-28T02:07:50;19.30;;;8.33;;
59512;SDS011;45330;51.634;5.562;2023-02-28T02:10:41;20.27;;;8.50;;
59512;SDS011;45330;51.634;5.562;2023-02-28T02:39:26;20.90;;;8.05;;
59512;SDS011;45330;51.634;5.562;2023-02-28T02:42:09;20.65;;;8.40;;
59512;SDS011;45330;51.634;5.562;2023-02-28T02:44:45;18.40;;;7.60;;
59512;SDS011;45330;51.634;5.562;2023-02-28T02:47:33;17.70;;;7.80;;
59512;SDS011;45330;51.634;5.562;2023-02-28T02:50:02;19.13;;;8.07;;
59512;SDS011;45330;51.634;5.562;2023-02-28T02:52:34;19.83;;;7.75;;
59512;SDS011;45330;51.634;5.562;2023-02-28T02:55:03;17.63;;;7.28;;
59512;SDS011;45330;51.634;5.562;2023-02-28T02:57:36;20.15;;;8.20;;
59512;SDS011;45330;51.634;5.562;2023-02-28T03:00:16;18.25;;;7.28;;
59512;SDS011;45330;51.634;5.562;2023-02-28T03:02:44;18.00;;;7.57;;
59512;SDS011;45330;51.634;5.562;2023-02-28T03:05:18;20.35;;;7.53;;
59512;SDS011;45330;51.634;5.562;2023-02-28T03:08:07;15.68;;;6.50;;
59512;SDS011;45330;51.634;5.562;2023-02-28T03:10:37;18.27;;;7.18;;
59512;SDS011;45330;51.634;5.562;2023-02-28T03:24:34;16.75;;;6.32;;
59512;SDS011;45330;51.634;5.562;2023-02-28T03:29:38;15.93;;;5.90;;
59512;SDS011;45330;51.634;5.562;2023-02-28T03:32:11;19.23;;;6.88;;
59512;SDS011;45330;51.634;5.562;2023-02-28T03:34:50;18.45;;;6.97;;
59512;SDS011;45330;51.634;5.562;2023-02-28T03:37:22;17.90;;;6.88;;
59512;SDS011;45330;51.634;5.562;2023-02-28T03:39:53;19.02;;;6.75;;
59512;SDS011;45330;51.634;5.562;2023-02-28T03:42:25;17.48;;;6.50;;
59512;SDS011;45330;51.634;5.562;2023-02-28T03:44:56;17.03;;;6.50;;
59512;SDS011;45330;51.634;5.562;2023-02-28T03:47:26;16.60;;;6.43;;
59512;SDS011;45330;51.634;5.562;2023-02-28T03:50:11;19.80;;;7.40;;
59512;SDS011;45330;51.634;5.562;2023-02-28T03:52:41;16.13;;;6.70;;
59512;SDS011;45330;51.634;5.562;2023-02-28T03:55:11;18.13;;;6.95;;
59512;SDS011;45330;51.634;5.562;2023-02-28T03:57:40;18.52;;;6.95;;
59512;SDS011;45330;51.634;5.562;2023-02-28T04:00:14;18.67;;;6.68;;
59512;SDS011;45330;51.634;5.562;2023-02-28T04:02:53;19.15;;;6.82;;
59512;SDS011;45330;51.634;5.562;2023-02-28T04:05:20;16.17;;;6.50;;
59512;SDS011;45330;51.634;5.562;2023-02-28T04:07:46;17.05;;;6.70;;
59512;SDS011;45330;51.634;5.562;2023-02-28T04:10:12;16.48;;;6.88;;
59512;SDS011;45330;51.634;5.562;2023-02-28T04:12:38;17.42;;;6.90;;
59512;SDS011;45330;51.634;5.562;2023-02-28T04:15:03;16.40;;;7.00;;
59512;SDS011;45330;51.634;5.562;2023-02-28T04:17:29;18.55;;;6.82;;
59512;SDS011;45330;51.634;5.562;2023-02-28T04:19:55;18.38;;;6.45;;
59512;SDS011;45330;51.634;5.562;2023-02-28T04:22:22;16.58;;;6.75;;
59512;SDS011;45330;51.634;5.562;2023-02-28T04:24:50;16.05;;;6.20;;
59512;SDS011;45330;51.634;5.562;2023-02-28T04:27:16;16.88;;;6.43;;
59512;SDS011;45330;51.634;5.562;2023-02-28T04:29:41;17.85;;;6.38;;
59512;SDS011;45330;51.634;5.562;2023-02-28T04:32:09;18.27;;;6.80;;
59512;SDS011;45330;51.634;5.562;2023-02-28T04:34:35;16.73;;;6.30;;
59512;SDS011;45330;51.634;5.562;2023-02-28T04:37:01;15.18;;;5.93;;
59512;SDS011;45330;51.634;5.562;2023-02-28T04:39:28;15.57;;;6.00;;
59512;SDS011;45330;51.634;5.562;2023-02-28T04:41:53;18.65;;;6.05;;
59512;SDS011;45330;51.634;5.562;2023-02-28T04:44:19;14.57;;;5.97;;
59512;SDS011;45330;51.634;5.562;2023-02-28T04:46:47;17.05;;;6.10;;
59512;SDS011;45330;51.634;5.562;2023-02-28T04:49:13;18.27;;;6.30;;
59512;SDS011;45330;51.634;5.562;2023-02-28T04:51:38;16.50;;;5.82;;
59512;SDS011;45330;51.634;5.562;2023-02-28T04:54:04;17.67;;;5.82;;
59512;SDS011;45330;51.634;5.562;2023-02-28T04:56:30;15.43;;;5.70;;
59512;SDS011;45330;51.634;5.562;2023-02-28T04:58:55;19.42;;;6.00;;
59512;SDS011;45330;51.634;5.562;2023-02-28T05:01:25;17.65;;;6.28;;
59512;SDS011;45330;51.634;5.562;2023-02-28T05:06:19;15.52;;;5.70;;
59512;SDS011;45330;51.634;5.562;2023-02-28T05:08:45;14.93;;;5.75;;
59512;SDS011;45330;51.634;5.562;2023-02-28T05:11:16;16.65;;;5.82;;
59512;SDS011;45330;51.634;5.562;2023-02-28T05:13:43;19.98;;;6.68;;
59512;SDS011;45330;51.634;5.562;2023-02-28T05:16:10;19.65;;;6.38;;
59512;SDS011;45330;51.634;5.562;2023-02-28T05:18:35;17.60;;;6.18;;
59512;SDS011;45330;51.634;5.562;2023-02-28T05:21:01;15.77;;;6.07;;
59512;SDS011;45330;51.634;5.562;2023-02-28T05:23:27;17.48;;;6.43;;
59512;SDS011;45330;51.634;5.562;2023-02-28T05:25:53;19.45;;;7.07;;
59512;SDS011;45330;51.634;5.562;2023-02-28T05:28:19;17.52;;;6.55;;
59512;SDS011;45330;51.634;5.562;2023-02-28T05:30:44;16.05;;;6.35;;
59512;SDS011;45330;51.634;5.562;2023-02-28T05:33:10;16.42;;;6.05;;
59512;SDS011;45330;51.634;5.562;2023-02-28T05:35:37;17.80;;;5.70;;
59512;SDS011;45330;51.634;5.562;2023-02-28T05:38:04;15.48;;;5.75;;
59512;SDS011;45330;51.634;5.562;2023-02-28T05:40:29;16.92;;;6.13;;
59512;SDS011;45330;51.634;5.562;2023-02-28T05:42:54;15.75;;;5.40;;
59512;SDS011;45330;51.634;5.562;2023-02-28T05:45:20;14.10;;;5.55;;
59512;SDS011;45330;51.634;5.562;2023-02-28T05:47:45;17.08;;;5.30;;
59512;SDS011;45330;51.634;5.562;2023-02-28T05:50:11;13.75;;;5.85;;
59512;SDS011;45330;51.634;5.562;2023-02-28T05:52:36;16.02;;;5.80;;
59512;SDS011;45330;51.634;5.562;2023-02-28T05:55:02;14.93;;;5.00;;
59512;SDS011;45330;51.634;5.562;2023-02-28T05:57:28;16.27;;;5.90;;
59512;SDS011;45330;51.634;5.562;2023-02-28T05:59:53;15.13;;;5.43;;
59512;SDS011;45330;51.634;5.562;2023-02-28T06:02:19;18.08;;;5.68;;
59512;SDS011;45330;51.634;5.562;2023-02-28T06:04:44;14.73;;;5.40;;
59512;SDS011;45330;51.634;5.562;2023-02-28T06:07:10;15.95;;;5.60;;
59512;SDS011;45330;51.634;5.562;2023-02-28T06:09:36;16.48;;;5.43;;
59512;SDS011;45330;51.634;5.562;2023-02-28T06:12:03;15.30;;;5.35;;
59512;SDS011;45330;51.634;5.562;2023-02-28T06:14:30;15.25;;;5.70;;
59512;SDS011;45330;51.634;5.562;2023-02-28T06:16:57;16.55;;;6.10;;
59512;SDS011;45330;51.634;5.562;2023-02-28T06:19:23;17.60;;;6.18;;
59512;SDS011;45330;51.634;5.562;2023-02-28T06:21:50;18.13;;;6.10;;
59512;SDS011;45330;51.634;5.562;2023-02-28T06:24:17;16.25;;;6.65;;
59512;SDS011;45330;51.634;5.562;2023-02-28T06:26:43;16.85;;;5.68;;
59512;SDS011;45330;51.634;5.562;2023-02-28T06:29:09;15.40;;;6.10;;
59512;SDS011;45330;51.634;5.562;2023-02-28T06:31:34;17.13;;;6.00;;
59512;SDS011;45330;51.634;5.562;2023-02-28T06:34:00;17.50;;;5.97;;
59512;SDS011;45330;51.634;5.562;2023-02-28T06:36:25;16.73;;;6.13;;
59512;SDS011;45330;51.634;5.562;2023-02-28T06:38:51;16.10;;;6.03;;
59512;SDS011;45330;51.634;5.562;2023-02-28T06:41:20;16.52;;;6.47;;
59512;SDS011;45330;51.634;5.562;2023-02-28T06:43:46;14.10;;;5.78;;
59512;SDS011;45330;51.634;5.562;2023-02-28T06:46:13;16.80;;;6.10;;
59512;SDS011;45330;51.634;5.562;2023-02-28T06:48:39;18.85;;;6.43;;
59512;SDS011;45330;51.634;5.562;2023-02-28T06:51:05;17.25;;;6.20;;
59512;SDS011;45330;51.634;5.562;2023-02-28T06:53:32;14.98;;;5.85;;
59512;SDS011;45330;51.634;5.562;2023-02-28T06:55:58;17.42;;;6.18;;
59512;SDS011;45330;51.634;5.562;2023-02-28T06:58:24;15.55;;;5.85;;
59512;SDS011;45330;51.634;5.562;2023-02-28T07:00:50;15.98;;;5.80;;
59512;SDS011;45330;51.634;5.562;2023-02-28T07:03:17;15.98;;;5.85;;
59512;SDS011;45330;51.634;5.562;2023-02-28T07:05:43;15.98;;;6.00;;
59512;SDS011;45330;51.634;5.562;2023-02-28T07:08:09;16.25;;;6.40;;
59512;SDS011;45330;51.634;5.562;2023-02-28T07:10:36;16.55;;;6.00;;
59512;SDS011;45330;51.634;5.562;2023-02-28T07:13:03;16.73;;;6.20;;
59512;SDS011;45330;51.634;5.562;2023-02-28T07:15:29;14.80;;;5.65;;
59512;SDS011;45330;51.634;5.562;2023-02-28T07:17:54;18.13;;;5.88;;
59512;SDS011;45330;51.634;5.562;2023-02-28T07:20:21;16.75;;;5.75;;
59512;SDS011;45330;51.634;5.562;2023-02-28T07:22:47;16.70;;;6.55;;
59512;SDS011;45330;51.634;5.562;2023-02-28T07:25:20;15.45;;;5.85;;
59512;SDS011;45330;51.634;5.562;2023-02-28T07:27:46;15.18;;;5.70;;
59512;SDS011;45330;51.634;5.562;2023-02-28T07:30:11;16.45;;;5.63;;
59512;SDS011;45330;51.634;5.562;2023-02-28T07:32:37;13.70;;;5.57;;
59512;SDS011;45330;51.634;5.562;2023-02-28T07:35:02;15.45;;;5.53;;
59512;SDS011;45330;51.634;5.562;2023-02-28T07:37:28;14.63;;;5.60;;
59512;SDS011;45330;51.634;5.562;2023-02-28T07:39:56;15.60;;;5.72;;
59512;SDS011;45330;51.634;5.562;2023-02-28T07:42:21;15.98;;;6.00;;
59512;SDS011;45330;51.634;5.562;2023-02-28T07:44:47;14.85;;;5.70;;
59512;SDS011;45330;51.634;5.562;2023-02-28T07:47:12;14.05;;;5.43;;
59512;SDS011;45330;51.634;5.562;2023-02-28T07:49:38;13.00;;;5.47;;
59512;SDS011;45330;51.634;5.562;2023-02-28T07:52:04;14.50;;;5.10;;
59512;SDS011;45330;51.634;5.562;2023-02-28T07:54:30;13.32;;;5.07;;
59512;SDS011;45330;51.634;5.562;2023-02-28T07:56:56;13.52;;;4.75;;
59512;SDS011;45330;51.634;5.562;2023-02-28T07:59:21;16.52;;;4.95;;
59512;SDS011;45330;51.634;5.562;2023-02-28T08:01:47;14.20;;;4.75;;
59512;SDS011;45330;51.634;5.562;2023-02-28T08:04:15;9.00;;;3.92;;
59512;SDS011;45330;51.634;5.562;2023-02-28T08:06:41;8.32;;;3.55;;
59512;SDS011;45330;51.634;5.562;2023-02-28T08:09:06;7.57;;;3.20;;
59512;SDS011;45330;51.634;5.562;2023-02-28T08:11:32;9.02;;;3.25;;
59512;SDS011;45330;51.634;5.562;2023-02-28T08:13:57;6.93;;;3.20;;
59512;SDS011;45330;51.634;5.562;2023-02-28T08:16:23;8.35;;;2.90;;
59512;SDS011;45330;51.634;5.562;2023-02-28T08:18:49;5.75;;;2.88;;
59512;SDS011;45330;51.634;5.562;2023-02-28T08:21:15;9.90;;;3.00;;
59512;SDS011;45330;51.634;5.562;2023-02-28T08:23:40;5.13;;;2.72;;
59512;SDS011;45330;51.634;5.562;2023-02-28T08:26:06;7.95;;;3.20;;
59512;SDS011;45330;51.634;5.562;2023-02-28T08:28:31;4.57;;;2.55;;
59512;SDS011;45330;51.634;5.562;2023-02-28T08:30:57;9.68;;;2.97;;
59512;SDS011;45330;51.634;5.562;2023-02-28T08:33:23;7.50;;;3.13;;
59512;SDS011;45330;51.634;5.562;2023-02-28T08:35:51;9.68;;;3.90;;
59512;SDS011;45330;51.634;5.562;2023-02-28T08:38:18;7.80;;;2.90;;
59512;SDS011;45330;51.634;5.562;2023-02-28T08:40:43;8.25;;;3.10;;
59512;SDS011;45330;51.634;5.562;2023-02-28T08:43:09;7.35;;;2.70;;
59512;SDS011;45330;51.634;5.562;2023-02-28T08:45:34;10.27;;;3.20;;
59512;SDS011;45330;51.634;5.562;2023-02-28T08:47:59;7.00;;;2.75;;
59512;SDS011;45330;51.634;5.562;2023-02-28T08:50:25;7.25;;;2.90;;
59512;SDS011;45330;51.634;5.562;2023-02-28T08:52:50;6.57;;;3.30;;
59512;SDS011;45330;51.634;5.562;2023-02-28T08:55:16;5.40;;;2.72;;
59512;SDS011;45330;51.634;5.562;2023-02-28T08:57:41;6.50;;;2.90;;
59512;SDS011;45330;51.634;5.562;2023-02-28T09:00:07;7.22;;;3.13;;
59512;SDS011;45330;51.634;5.562;2023-02-28T09:02:35;10.38;;;3.20;;
59512;SDS011;45330;51.634;5.562;2023-02-28T09:05:01;6.82;;;3.17;;
59512;SDS011;45330;51.634;5.562;2023-02-28T09:07:28;6.20;;;2.75;;
59512;SDS011;45330;51.634;5.562;2023-02-28T09:09:53;6.25;;;2.83;;
59512;SDS011;45330;51.634;5.562;2023-02-28T09:12:23;8.73;;;2.90;;
59512;SDS011;45330;51.634;5.562;2023-02-28T09:14:50;3.10;;;2.28;;
59512;SDS011;45330;51.634;5.562;2023-02-28T09:17:16;6.60;;;2.60;;
59512;SDS011;45330;51.634;5.562;2023-02-28T09:19:42;7.50;;;2.92;;
59512;SDS011;45330;51.634;5.562;2023-02-28T09:22:08;5.85;;;2.63;;
59512;SDS011;45330;51.634;5.562;2023-02-28T09:24:35;4.15;;;2.38;;
59512;SDS011;45330;51.634;5.562;2023-02-28T09:27:01;7.15;;;3.03;;
59512;SDS011;45330;51.634;5.562;2023-02-28T09:29:26;7.55;;;2.95;;
59512;SDS011;45330;51.634;5.562;2023-02-28T09:31:51;5.70;;;2.50;;
59512;SDS011;45330;51.634;5.562;2023-02-28T09:34:17;5.38;;;2.40;;
59512;SDS011;45330;51.634;5.562;2023-02-28T09:36:42;6.65;;;2.70;;
59512;SDS011;45330;51.634;5.562;2023-02-28T09:39:08;5.40;;;2.70;;
59512;SDS011;45330;51.634;5.562;2023-02-28T09:41:37;5.55;;;2.33;;
59512;SDS011;45330;51.634;5.562;2023-02-28T09:44:12;5.68;;;2.40;;
59512;SDS011;45330;51.634;5.562;2023-02-28T09:46:46;3.58;;;2.20;;
59512;SDS011;45330;51.634;5.562;2023-02-28T09:49:18;4.55;;;2.28;;
59512;SDS011;45330;51.634;5.562;2023-02-28T09:51:49;3.65;;;2.20;;
59512;SDS011;45330;51.634;5.562;2023-02-28T09:54:19;4.38;;;2.47;;
59512;SDS011;45330;51.634;5.562;2023-02-28T09:57:08;4.95;;;2.45;;
59512;SDS011;45330;51.634;5.562;2023-02-28T09:59:43;4.53;;;2.20;;
59512;SDS011;45330;51.634;5.562;2023-02-28T10:02:46;5.90;;;2.33;;
59512;SDS011;45330;51.634;5.562;2023-02-28T10:05:43;5.47;;;2.60;;
59512;SDS011;45330;51.634;5.562;2023-02-28T10:08:19;6.40;;;2.30;;
59512;SDS011;45330;51.634;5.562;2023-02-28T10:10:58;5.82;;;2.50;;
59512;SDS011;45330;51.634;5.562;2023-02-28T10:16:25;4.60;;;2.45;;
59512;SDS011;45330;51.634;5.562;2023-02-28T10:19:06;4.93;;;2.50;;
59512;SDS011;45330;51.634;5.562;2023-02-28T10:21:41;5.65;;;2.60;;
59512;SDS011;45330;51.634;5.562;2023-02-28T10:27:01;5.57;;;2.67;;
59512;SDS011;45330;51.634;5.562;2023-02-28T10:29:39;6.45;;;2.60;;
59512;SDS011;45330;51.634;5.562;2023-02-28T10:32:08;3.17;;;2.28;;
59512;SDS011;45330;51.634;5.562;2023-02-28T10:34:37;7.67;;;2.50;;
59512;SDS011;45330;51.634;5.562;2023-02-28T10:37:03;4.15;;;2.20;;
59512;SDS011;45330;51.634;5.562;2023-02-28T10:42:02;4.35;;;2.22;;
59512;SDS011;45330;51.634;5.562;2023-02-28T10:44:28;3.92;;;2.40;;
59512;SDS011;45330;51.634;5.562;2023-02-28T10:46:53;4.35;;;2.40;;
59512;SDS011;45330;51.634;5.562;2023-02-28T10:49:21;4.20;;;2.20;;
59512;SDS011;45330;51.634;5.562;2023-02-28T10:51:52;4.82;;;2.38;;
59512;SDS011;45330;51.634;5.562;2023-02-28T10:54:23;3.45;;;2.10;;
59512;SDS011;45330;51.634;5.562;2023-02-28T11:00:07;4.88;;;2.30;;
59512;SDS011;45330;51.634;5.562;2023-02-28T11:02:41;6.10;;;2.30;;
59512;SDS011;45330;51.634;5.562;2023-02-28T11:07:56;4.78;;;2.33;;
59512;SDS011;45330;51.634;5.562;2023-02-28T11:10:28;4.45;;;2.40;;
59512;SDS011;45330;51.634;5.562;2023-02-28T11:12:59;6.00;;;2.17;;
59512;SDS011;45330;51.634;5.562;2023-02-28T11:15:32;4.75;;;2.20;;
59512;SDS011;45330;51.634;5.562;2023-02-28T11:18:17;5.82;;;2.40;;
59512;SDS011;45330;51.634;5.562;2023-02-28T11:20:48;5.72;;;2.22;;
59512;SDS011;45330;51.634;5.562;2023-02-28T11:23:15;4.47;;;2.17;;
59512;SDS011;45330;51.634;5.562;2023-02-28T11:25:53;4.05;;;2.28;;
59512;SDS011;45330;51.634;5.562;2023-02-28T11:28:32;2.72;;;2.08;;
59512;SDS011;45330;51.634;5.562;2023-02-28T11:33:42;5.10;;;2.53;;
59512;SDS011;45330;51.634;5.562;2023-02-28T11:36:31;5.55;;;2.35;;
59512;SDS011;45330;51.634;5.562;2023-02-28T11:38:59;5.32;;;2.20;;
59512;SDS011;45330;51.634;5.562;2023-02-28T11:46:53;4.50;;;2.67;;
59512;SDS011;45330;51.634;5.562;2023-02-28T12:00:12;5.65;;;2.50;;
59512;SDS011;45330;51.634;5.562;2023-02-28T12:05:35;5.47;;;2.72;;
59512;SDS011;45330;51.634;5.562;2023-02-28T12:13:42;5.43;;;2.50;;
59512;SDS011;45330;51.634;5.562;2023-02-28T12:16:29;5.72;;;2.40;;
59512;SDS011;45330;51.634;5.562;2023-02-28T12:19:19;3.55;;;2.35;;
59512;SDS011;45330;51.634;5.562;2023-02-28T12:27:12;6.95;;;2.50;;
59512;SDS011;45330;51.634;5.562;2023-02-28T12:29:43;7.80;;;2.88;;
59512;SDS011;45330;51.634;5.562;2023-02-28T12:37:21;3.88;;;2.58;;
59512;SDS011;45330;51.634;5.562;2023-02-28T12:39:54;5.93;;;2.40;;
59512;SDS011;45330;51.634;5.562;2023-02-28T12:42:31;6.10;;;2.80;;
59512;SDS011;45330;51.634;5.562;2023-02-28T12:45:05;6.47;;;2.80;;
59512;SDS011;45330;51.634;5.562;2023-02-28T12:47:38;5.30;;;2.80;;
59512;SDS011;45330;51.634;5.562;2023-02-28T12:50:08;7.35;;;2.67;;
59512;SDS011;45330;51.634;5.562;2023-02-28T12:55:13;5.85;;;2.58;;
59512;SDS011;45330;51.634;5.562;2023-02-28T12:58:05;4.57;;;2.60;;
59512;SDS011;45330;51.634;5.562;2023-02-28T13:00:36;5.53;;;2.60;;
59512;SDS011;45330;51.634;5.562;2023-02-28T13:03:27;7.70;;;2.50;;
59512;SDS011;45330;51.634;5.562;2023-02-28T13:09:11;6.50;;;2.83;;
59512;SDS011;45330;51.634;5.562;2023-02-28T13:14:06;5.50;;;2.70;;
59512;SDS011;45330;51.634;5.562;2023-02-28T13:16:58;10.43;;;3.08;;
59512;SDS011;45330;51.634;5.562;2023-02-28T13:19:28;5.03;;;2.63;;
59512;SDS011;45330;51.634;5.562;2023-02-28T13:21:56;7.55;;;2.75;;
59512;SDS011;45330;51.634;5.562;2023-02-28T13:24:41;5.20;;;2.42;;
59512;SDS011;45330;51.634;5.562;2023-02-28T13:34:31;6.85;;;2.65;;
59512;SDS011;45330;51.634;5.562;2023-02-28T13:39:55;6.68;;;2.78;;
59512;SDS011;45330;51.634;5.562;2023-02-28T13:47:30;6.57;;;2.80;;
59512;SDS011;45330;51.634;5.562;2023-02-28T13:52:45;4.97;;;2.53;;
59512;SDS011;45330;51.634;5.562;2023-02-28T14:07:01;10.75;;;3.22;;
59512;SDS011;45330;51.634;5.562;2023-02-28T14:09:32;7.78;;;2.70;;
59512;SDS011;45330;51.634;5.562;2023-02-28T14:15:04;5.45;;;2.60;;
59512;SDS011;45330;51.634;5.562;2023-02-28T14:17:53;7.43;;;3.10;;
59512;SDS011;45330;51.634;5.562;2023-02-28T14:20:20;8.77;;;3.20;;
59512;SDS011;45330;51.634;5.562;2023-02-28T14:22:54;8.32;;;3.03;;
59512;SDS011;45330;51.634;5.562;2023-02-28T14:33:41;9.90;;;3.17;;
59512;SDS011;45330;51.634;5.562;2023-02-28T14:36:23;7.53;;;2.88;;
59512;SDS011;45330;51.634;5.562;2023-02-28T14:38:53;7.47;;;3.13;;
59512;SDS011;45330;51.634;5.562;2023-02-28T14:41:23;7.00;;;2.90;;
59512;SDS011;45330;51.634;5.562;2023-02-28T14:43:57;8.98;;;2.80;;
59512;SDS011;45330;51.634;5.562;2023-02-28T14:46:34;8.85;;;3.10;;
59512;SDS011;45330;51.634;5.562;2023-02-28T14:49:06;7.68;;;2.90;;
59512;SDS011;45330;51.634;5.562;2023-02-28T14:51:38;5.63;;;2.60;;
59512;SDS011;45330;51.634;5.562;2023-02-28T14:54:03;5.65;;;2.85;;
59512;SDS011;45330;51.634;5.562;2023-02-28T14:56:36;5.43;;;2.83;;
59512;SDS011;45330;51.634;5.562;2023-02-28T14:59:03;6.68;;;3.00;;
59512;SDS011;45330;51.634;5.562;2023-02-28T15:01:30;6.32;;;2.90;;
59512;SDS011;45330;51.634;5.562;2023-02-28T15:04:03;7.25;;;3.10;;
59512;SDS011;45330;51.634;5.562;2023-02-28T15:06:31;5.18;;;2.75;;
59512;SDS011;45330;51.634;5.562;2023-02-28T15:09:07;6.55;;;3.05;;
59512;SDS011;45330;51.634;5.562;2023-02-28T15:11:33;5.90;;;2.97;;
59512;SDS011;45330;51.634;5.562;2023-02-28T15:14:00;6.35;;;3.13;;
59512;SDS011;45330;51.634;5.562;2023-02-28T15:16:36;6.82;;;2.92;;
59512;SDS011;45330;51.634;5.562;2023-02-28T15:19:06;6.20;;;3.10;;
59512;SDS011;45330;51.634;5.562;2023-02-28T15:21:43;8.38;;;3.22;;
59512;SDS011;45330;51.634;5.562;2023-02-28T15:27:07;5.13;;;2.90;;
59512;SDS011;45330;51.634;5.562;2023-02-28T15:29:46;7.07;;;3.35;;
59512;SDS011;45330;51.634;5.562;2023-02-28T15:32:27;6.07;;;3.03;;
59512;SDS011;45330;51.634;5.562;2023-02-28T15:35:17;7.88;;;3.33;;
59512;SDS011;45330;51.634;5.562;2023-02-28T15:37:47;7.75;;;3.08;;
59512;SDS011;45330;51.634;5.562;2023-02-28T15:40:26;6.80;;;3.20;;
59512;SDS011;45330;51.634;5.562;2023-02-28T15:45:45;8.73;;;3.15;;
59512;SDS011;45330;51.634;5.562;2023-02-28T15:48:17;9.18;;;3.40;;
59512;SDS011;45330;51.634;5.562;2023-02-28T15:51:07;6.38;;;3.20;;
59512;SDS011;45330;51.634;5.562;2023-02-28T15:53:56;9.60;;;3.17;;
59512;SDS011;45330;51.634;5.562;2023-02-28T15:56:25;9.05;;;3.50;;
59512;SDS011;45330;51.634;5.562;2023-02-28T15:58:54;8.60;;;3.30;;
59512;SDS011;45330;51.634;5.562;2023-02-28T16:03:56;6.78;;;2.90;;
59512;SDS011;45330;51.634;5.562;2023-02-28T16:11:22;7.40;;;3.53;;
59512;SDS011;45330;51.634;5.562;2023-02-28T16:13:48;8.27;;;3.35;;
59512;SDS011;45330;51.634;5.562;2023-02-28T16:16:16;8.32;;;3.35;;
59512;SDS011;45330;51.634;5.562;2023-02-28T16:18:43;10.10;;;3.63;;
59512;SDS011;45330;51.634;5.562;2023-02-28T16:21:08;6.47;;;3.22;;
59512;SDS011;45330;51.634;5.562;2023-02-28T16:23:34;7.68;;;3.47;;
59512;SDS011;45330;51.634;5.562;2023-02-28T16:25:59;7.72;;;3.30;;
59512;SDS011;45330;51.634;5.562;2023-02-28T16:28:27;9.32;;;3.53;;
59512;SDS011;45330;51.634;5.562;2023-02-28T16:30:56;8.77;;;3.35;;
59512;SDS011;45330;51.634;5.562;2023-02-28T16:33:22;8.10;;;3.47;;
59512;SDS011;45330;51.634;5.562;2023-02-28T16:35:47;11.30;;;3.58;;
59512;SDS011;45330;51.634;5.562;2023-02-28T16:38:12;6.57;;;3.15;;
59512;SDS011;45330;51.634;5.562;2023-02-28T16:40:38;8.85;;;3.50;;
59512;SDS011;45330;51.634;5.562;2023-02-28T16:43:13;7.10;;;3.30;;
59512;SDS011;45330;51.634;5.562;2023-02-28T16:45:42;8.88;;;3.67;;
59512;SDS011;45330;51.634;5.562;2023-02-28T16:48:12;7.03;;;3.55;;
59512;SDS011;45330;51.634;5.562;2023-02-28T16:50:39;7.05;;;3.60;;
59512;SDS011;45330;51.634;5.562;2023-02-28T16:53:05;9.00;;;3.47;;
59512;SDS011;45330;51.634;5.562;2023-02-28T16:55:30;7.72;;;3.47;;
59512;SDS011;45330;51.634;5.562;2023-02-28T16:57:57;8.35;;;3.40;;
59512;SDS011;45330;51.634;5.562;2023-02-28T17:00:24;9.10;;;3.75;;
59512;SDS011;45330;51.634;5.562;2023-02-28T17:02:51;8.90;;;3.47;;
59512;SDS011;45330;51.634;5.562;2023-02-28T17:05:17;10.57;;;3.90;;
59512;SDS011;45330;51.634;5.562;2023-02-28T17:07:43;8.52;;;3.65;;
59512;SDS011;45330;51.634;5.562;2023-02-28T17:10:20;7.55;;;3.33;;
59512;SDS011;45330;51.634;5.562;2023-02-28T17:12:47;7.95;;;3.72;;
59512;SDS011;45330;51.634;5.562;2023-02-28T17:15:13;8.95;;;3.70;;
59512;SDS011;45330;51.634;5.562;2023-02-28T17:17:40;7.93;;;3.78;;
59512;SDS011;45330;51.634;5.562;2023-02-28T17:20:10;10.88;;;3.58;;
59512;SDS011;45330;51.634;5.562;2023-02-28T17:22:40;7.88;;;3.53;;
59512;SDS011;45330;51.634;5.562;2023-02-28T17:25:07;9.73;;;3.85;;
59512;SDS011;45330;51.634;5.562;2023-02-28T17:27:33;8.93;;;3.75;;
59512;SDS011;45330;51.634;5.562;2023-02-28T17:29:59;12.23;;;4.28;;